Aeroporto :
LOGIN :

Iscrizione | Disclaimer

   EN    FR    IT 

 










Sommario :    VFR   VFR Marginale   IFR   IFR Intensivo   IFR Molto Intensivo
Visibilità : 
Base nubi : 
>= 8 km
>= 3000ft
5 / 8 km
1000 / 3000 ft
1500m / 5 km
500 / 1000 ft
800 / 1500m
200 / 500 ft
< 800m
< 200 ft
Simboli :   Temporali  Nebbia  Neve Forte  Precipitazioni Forti  Vento > 20 kt
SIGMETs :   Varie  Temporali  Ghiacco  Turbolenza  Onda orograficha  Ceneri Vulcaniche







- Altitudine del aeroporto : 499 ft
- Codice IATA : TLS
- Carte del aeroporto


LFBO - Toulouse / Blagnac

ULTIMO METAR :
  • 162030Z AUTO 15003KT 9999 BKN021 BKN027 OVC038 17/15 Q1019 BECMG 4000 BR BKN008

METARs OBSOLETI :
  • 162000Z AUTO VRB02KT 9999 FEW017 BKN023 BKN029 18/14 Q1019 BECMG 4000 BR BKN008
  • 161930Z AUTO 17003KT 9999 FEW009 BKN017 BKN025 18/15 Q1019 BECMG 4000 BR BKN008
  • 161900Z AUTO 21003KT 9999 FEW008 SCT029 OVC088 18/14 Q1019 NOSIG
  • 161830Z AUTO 17004KT 9999 FEW008 OVC092 18/14 Q1018 NOSIG
  • 161800Z AUTO 13005KT 9999 FEW022 SCT030 OVC090 18/14 Q1018 NOSIG

TAF TAF LFBO
Valido dal 16 a 18 ore il 18 a 00 ore UTC


161700Z 1618/1724 14006KT 9999 BKN025 BKN100
BECMG 1621/1623 4000 BR BKN008
BECMG 1623/1702 2000 OVC004
PROB40 1701/1708 0600 OVC002
BECMG 1708/1710 8000 NSW BKN008
BECMG 1710/1712 BKN012
BECMG 1712/1714 SCT016
BECMG 1719/1721 4000 BR
BECMG 1721/1724 0800 BCFG
ATIS : +33 5 62 74 66 36
Nessun NOTAM noto per questo aeroporto.



MetMap, La meteo Aeronautica in un colpo d'occhio ! - Copyright ORBIFLY Dicembre 2007 - Disclaimer

ORBIFLY MET'MAP TEAM :

Programmazione e sviluppo : Alexandra Zaïnal
Concezione e sviluppo : Baudouin d'Aumeries
Co-Programmazione e sviluppo : Marc-Olivier Méhu
Supporto tecnico e logistico : Manuel Goepfert
Aiuto per la traduzione : Arnaldo La Scala

Contatto : metmap@orbifly.com




FONTI E CREDITI :

   NOAA